sensor_id;sensor_type;location;lat;lon;timestamp;temperature;humidity
51765;DHT22;37835;53.256;6.456;2022-08-30T00:01:58;14.50;99.90
51765;DHT22;37835;53.256;6.456;2022-08-30T00:04:24;14.60;99.90
51765;DHT22;37835;53.256;6.456;2022-08-30T00:06:50;14.50;99.90
51765;DHT22;37835;53.256;6.456;2022-08-30T00:09:16;14.50;99.90
51765;DHT22;37835;53.256;6.456;2022-08-30T00:11:42;14.40;99.90
51765;DHT22;37835;53.256;6.456;2022-08-30T00:14:07;14.40;99.90
51765;DHT22;37835;53.256;6.456;2022-08-30T00:16:33;14.40;99.90
51765;DHT22;37835;53.256;6.456;2022-08-30T00:18:58;14.40;99.90
51765;DHT22;37835;53.256;6.456;2022-08-30T00:21:25;14.40;99.90
51765;DHT22;37835;53.256;6.456;2022-08-30T00:23:51;14.30;99.90
51765;DHT22;37835;53.256;6.456;2022-08-30T00:26:17;14.30;99.90
51765;DHT22;37835;53.256;6.456;2022-08-30T00:28:43;14.30;99.90
51765;DHT22;37835;53.256;6.456;2022-08-30T00:31:08;14.30;99.90
51765;DHT22;37835;53.256;6.456;2022-08-30T00:33:34;14.20;99.90
51765;DHT22;37835;53.256;6.456;2022-08-30T00:36:00;14.20;99.90
51765;DHT22;37835;53.256;6.456;2022-08-30T00:38:26;14.20;99.90
51765;DHT22;37835;53.256;6.456;2022-08-30T00:40:52;14.20;99.90
51765;DHT22;37835;53.256;6.456;2022-08-30T00:43:24;14.10;99.90
51765;DHT22;37835;53.256;6.456;2022-08-30T00:45:50;14.10;99.90
51765;DHT22;37835;53.256;6.456;2022-08-30T00:48:16;14.00;99.90
51765;DHT22;37835;53.256;6.456;2022-08-30T00:50:49;13.90;99.90
51765;DHT22;37835;53.256;6.456;2022-08-30T00:53:24;13.90;99.90
51765;DHT22;37835;53.256;6.456;2022-08-30T00:55:50;13.80;99.90
51765;DHT22;37835;53.256;6.456;2022-08-30T00:58:20;13.80;99.90
51765;DHT22;37835;53.256;6.456;2022-08-30T01:00:49;13.80;99.90
51765;DHT22;37835;53.256;6.456;2022-08-30T01:03:16;13.80;99.90
51765;DHT22;37835;53.256;6.456;2022-08-30T01:05:42;13.80;99.90
51765;DHT22;37835;53.256;6.456;2022-08-30T01:08:08;13.80;99.90
51765;DHT22;37835;53.256;6.456;2022-08-30T01:10:35;13.80;99.90
51765;DHT22;37835;53.256;6.456;2022-08-30T01:13:01;13.80;99.90
51765;DHT22;37835;53.256;6.456;2022-08-30T01:15:27;13.80;99.90
51765;DHT22;37835;53.256;6.456;2022-08-30T01:17:52;13.80;99.90
51765;DHT22;37835;53.256;6.456;2022-08-30T01:20:24;13.80;99.90
51765;DHT22;37835;53.256;6.456;2022-08-30T01:25:24;13.90;99.90
51765;DHT22;37835;53.256;6.456;2022-08-30T01:27:54;13.90;99.90
51765;DHT22;37835;53.256;6.456;2022-08-30T01:30:21;13.90;99.90
51765;DHT22;37835;53.256;6.456;2022-08-30T01:32:49;13.90;99.90
51765;DHT22;37835;53.256;6.456;2022-08-30T01:35:17;13.90;99.90
51765;DHT22;37835;53.256;6.456;2022-08-30T01:37:44;14.00;99.90
51765;DHT22;37835;53.256;6.456;2022-08-30T01:40:12;14.00;99.90
51765;DHT22;37835;53.256;6.456;2022-08-30T01:42:38;14.00;99.90
51765;DHT22;37835;53.256;6.456;2022-08-30T01:45:05;14.00;99.90
51765;DHT22;37835;53.256;6.456;2022-08-30T01:47:31;14.00;99.90
51765;DHT22;37835;53.256;6.456;2022-08-30T01:49:57;14.10;99.90
51765;DHT22;37835;53.256;6.456;2022-08-30T01:52:23;14.10;99.90
51765;DHT22;37835;53.256;6.456;2022-08-30T01:54:50;14.10;99.90
51765;DHT22;37835;53.256;6.456;2022-08-30T01:57:18;14.10;99.90
51765;DHT22;37835;53.256;6.456;2022-08-30T01:59:44;14.10;99.90
51765;DHT22;37835;53.256;6.456;2022-08-30T02:02:13;14.10;99.90
51765;DHT22;37835;53.256;6.456;2022-08-30T02:04:39;14.10;99.90
51765;DHT22;37835;53.256;6.456;2022-08-30T02:07:05;14.10;99.90
51765;DHT22;37835;53.256;6.456;2022-08-30T02:09:31;14.10;99.90
51765;DHT22;37835;53.256;6.456;2022-08-30T02:11:56;14.10;99.90
51765;DHT22;37835;53.256;6.456;2022-08-30T02:14:22;14.10;99.90
51765;DHT22;37835;53.256;6.456;2022-08-30T02:16:48;14.10;99.90
51765;DHT22;37835;53.256;6.456;2022-08-30T02:19:14;14.10;99.90
51765;DHT22;37835;53.256;6.456;2022-08-30T02:21:39;14.10;99.90
51765;DHT22;37835;53.256;6.456;2022-08-30T02:24:05;14.10;99.90
51765;DHT22;37835;53.256;6.456;2022-08-30T02:26:31;14.10;99.90
51765;DHT22;37835;53.256;6.456;2022-08-30T02:28:57;14.10;99.90
51765;DHT22;37835;53.256;6.456;2022-08-30T02:31:24;14.10;99.90
51765;DHT22;37835;53.256;6.456;2022-08-30T02:33:51;14.10;99.90
51765;DHT22;37835;53.256;6.456;2022-08-30T02:36:18;14.10;99.90
51765;DHT22;37835;53.256;6.456;2022-08-30T02:38:45;14.10;99.90
51765;DHT22;37835;53.256;6.456;2022-08-30T02:41:11;14.10;99.90
51765;DHT22;37835;53.256;6.456;2022-08-30T02:43:36;14.10;99.90
51765;DHT22;37835;53.256;6.456;2022-08-30T02:46:02;14.10;99.90
51765;DHT22;37835;53.256;6.456;2022-08-30T02:48:28;14.10;99.90
51765;DHT22;37835;53.256;6.456;2022-08-30T02:50:53;14.10;99.90
51765;DHT22;37835;53.256;6.456;2022-08-30T02:53:19;14.10;99.90
51765;DHT22;37835;53.256;6.456;2022-08-30T02:55:46;14.10;99.90
51765;DHT22;37835;53.256;6.456;2022-08-30T02:58:12;14.20;99.90
51765;DHT22;37835;53.256;6.456;2022-08-30T03:00:38;14.20;99.90
51765;DHT22;37835;53.256;6.456;2022-08-30T03:03:06;14.20;99.90
51765;DHT22;37835;53.256;6.456;2022-08-30T03:05:32;14.20;99.90
51765;DHT22;37835;53.256;6.456;2022-08-30T03:07:58;14.20;99.90
51765;DHT22;37835;53.256;6.456;2022-08-30T03:10:25;14.20;99.90
51765;DHT22;37835;53.256;6.456;2022-08-30T03:12:52;14.20;99.90
51765;DHT22;37835;53.256;6.456;2022-08-30T03:15:19;14.20;99.90
51765;DHT22;37835;53.256;6.456;2022-08-30T03:17:45;14.20;99.90
51765;DHT22;37835;53.256;6.456;2022-08-30T03:20:10;14.30;99.90
51765;DHT22;37835;53.256;6.456;2022-08-30T03:22:36;14.30;99.90
51765;DHT22;37835;53.256;6.456;2022-08-30T03:25:03;14.20;99.90
51765;DHT22;37835;53.256;6.456;2022-08-30T03:27:29;14.30;99.90
51765;DHT22;37835;53.256;6.456;2022-08-30T03:29:55;14.30;99.90
51765;DHT22;37835;53.256;6.456;2022-08-30T03:32:21;14.30;99.90
51765;DHT22;37835;53.256;6.456;2022-08-30T03:34:47;14.30;99.90
51765;DHT22;37835;53.256;6.456;2022-08-30T03:37:12;14.30;99.90
51765;DHT22;37835;53.256;6.456;2022-08-30T03:39:38;14.20;99.90
51765;DHT22;37835;53.256;6.456;2022-08-30T03:42:04;14.20;99.90
51765;DHT22;37835;53.256;6.456;2022-08-30T03:44:29;14.20;99.90
51765;DHT22;37835;53.256;6.456;2022-08-30T03:46:55;14.20;99.90
51765;DHT22;37835;53.256;6.456;2022-08-30T03:49:21;14.10;99.90
51765;DHT22;37835;53.256;6.456;2022-08-30T03:51:46;14.20;99.90
51765;DHT22;37835;53.256;6.456;2022-08-30T03:54:13;14.10;99.90
51765;DHT22;37835;53.256;6.456;2022-08-30T03:56:39;14.10;99.90
51765;DHT22;37835;53.256;6.456;2022-08-30T03:59:05;14.10;99.90
51765;DHT22;37835;53.256;6.456;2022-08-30T04:01:31;14.10;99.90
51765;DHT22;37835;53.256;6.456;2022-08-30T04:03:56;14.10;99.90
51765;DHT22;37835;53.256;6.456;2022-08-30T04:06:22;14.10;99.90
51765;DHT22;37835;53.256;6.456;2022-08-30T04:08:48;14.10;99.90
51765;DHT22;37835;53.256;6.456;2022-08-30T04:11:14;14.10;99.90
51765;DHT22;37835;53.256;6.456;2022-08-30T04:13:41;14.10;99.90
51765;DHT22;37835;53.256;6.456;2022-08-30T04:16:06;14.00;99.90
51765;DHT22;37835;53.256;6.456;2022-08-30T04:18:32;14.00;99.90
51765;DHT22;37835;53.256;6.456;2022-08-30T04:20:59;13.90;99.90
51765;DHT22;37835;53.256;6.456;2022-08-30T04:23:24;13.90;99.90
51765;DHT22;37835;53.256;6.456;2022-08-30T04:25:50;13.90;99.90
51765;DHT22;37835;53.256;6.456;2022-08-30T04:28:15;13.80;99.90
51765;DHT22;37835;53.256;6.456;2022-08-30T04:30:43;13.70;99.90
51765;DHT22;37835;53.256;6.456;2022-08-30T04:33:10;13.70;99.90
51765;DHT22;37835;53.256;6.456;2022-08-30T04:35:36;13.60;99.90
51765;DHT22;37835;53.256;6.456;2022-08-30T04:38:02;13.60;99.90
51765;DHT22;37835;53.256;6.456;2022-08-30T04:40:28;13.50;99.90
51765;DHT22;37835;53.256;6.456;2022-08-30T04:42:53;13.50;99.90
51765;DHT22;37835;53.256;6.456;2022-08-30T04:45:21;13.40;99.90
51765;DHT22;37835;53.256;6.456;2022-08-30T04:47:47;13.60;99.90
51765;DHT22;37835;53.256;6.456;2022-08-30T04:50:15;13.40;99.90
51765;DHT22;37835;53.256;6.456;2022-08-30T04:52:41;13.50;99.90
51765;DHT22;37835;53.256;6.456;2022-08-30T04:55:08;13.30;99.90
51765;DHT22;37835;53.256;6.456;2022-08-30T04:57:35;13.30;99.90
51765;DHT22;37835;53.256;6.456;2022-08-30T05:00:01;13.20;99.90
51765;DHT22;37835;53.256;6.456;2022-08-30T05:02:27;13.20;99.90
51765;DHT22;37835;53.256;6.456;2022-08-30T05:04:52;13.20;99.90
51765;DHT22;37835;53.256;6.456;2022-08-30T05:07:36;13.20;99.90
51765;DHT22;37835;53.256;6.456;2022-08-30T05:10:03;13.10;99.90
51765;DHT22;37835;53.256;6.456;2022-08-30T05:12:29;13.10;99.90
51765;DHT22;37835;53.256;6.456;2022-08-30T05:14:54;13.10;99.90
51765;DHT22;37835;53.256;6.456;2022-08-30T05:17:23;13.50;99.90
51765;DHT22;37835;53.256;6.456;2022-08-30T05:19:48;13.00;99.90
51765;DHT22;37835;53.256;6.456;2022-08-30T05:22:14;13.30;99.90
51765;DHT22;37835;53.256;6.456;2022-08-30T05:24:39;13.10;99.90
51765;DHT22;37835;53.256;6.456;2022-08-30T05:27:05;13.00;99.90
51765;DHT22;37835;53.256;6.456;2022-08-30T05:29:31;13.00;99.90
51765;DHT22;37835;53.256;6.456;2022-08-30T05:31:56;13.00;99.90
51765;DHT22;37835;53.256;6.456;2022-08-30T05:34:22;13.00;99.90
51765;DHT22;37835;53.256;6.456;2022-08-30T05:36:48;13.10;99.90
51765;DHT22;37835;53.256;6.456;2022-08-30T05:39:14;13.10;99.90
51765;DHT22;37835;53.256;6.456;2022-08-30T05:41:39;13.10;99.90
51765;DHT22;37835;53.256;6.456;2022-08-30T05:44:07;13.20;99.90
51765;DHT22;37835;53.256;6.456;2022-08-30T05:46:34;13.20;99.90
51765;DHT22;37835;53.256;6.456;2022-08-30T05:49:02;13.20;99.90
51765;DHT22;37835;53.256;6.456;2022-08-30T05:51:30;13.30;99.90
51765;DHT22;37835;53.256;6.456;2022-08-30T05:53:57;13.40;99.90
51765;DHT22;37835;53.256;6.456;2022-08-30T05:56:34;13.40;99.90
51765;DHT22;37835;53.256;6.456;2022-08-30T05:59:02;13.50;99.90
51765;DHT22;37835;53.256;6.456;2022-08-30T06:01:30;13.50;99.90
51765;DHT22;37835;53.256;6.456;2022-08-30T06:03:58;13.60;99.90
51765;DHT22;37835;53.256;6.456;2022-08-30T06:06:26;13.60;99.90
51765;DHT22;37835;53.256;6.456;2022-08-30T06:08:53;13.70;99.90
51765;DHT22;37835;53.256;6.456;2022-08-30T06:11:20;13.80;99.90
51765;DHT22;37835;53.256;6.456;2022-08-30T06:13:46;13.90;99.90
51765;DHT22;37835;53.256;6.456;2022-08-30T06:16:14;13.90;99.90
51765;DHT22;37835;53.256;6.456;2022-08-30T06:18:40;14.00;99.90
51765;DHT22;37835;53.256;6.456;2022-08-30T06:21:06;14.10;99.90
51765;DHT22;37835;53.256;6.456;2022-08-30T06:23:31;14.10;99.90
51765;DHT22;37835;53.256;6.456;2022-08-30T06:26:03;14.20;99.90
51765;DHT22;37835;53.256;6.456;2022-08-30T06:28:29;14.20;99.90
51765;DHT22;37835;53.256;6.456;2022-08-30T06:30:55;14.30;99.90
51765;DHT22;37835;53.256;6.456;2022-08-30T06:33:20;14.40;99.90
51765;DHT22;37835;53.256;6.456;2022-08-30T06:35:46;14.40;99.90
51765;DHT22;37835;53.256;6.456;2022-08-30T06:38:12;14.50;99.90
51765;DHT22;37835;53.256;6.456;2022-08-30T06:40:37;14.60;99.90
51765;DHT22;37835;53.256;6.456;2022-08-30T06:43:03;14.70;99.90
51765;DHT22;37835;53.256;6.456;2022-08-30T06:45:28;14.70;99.90
51765;DHT22;37835;53.256;6.456;2022-08-30T06:47:57;14.80;99.90
51765;DHT22;37835;53.256;6.456;2022-08-30T06:50:23;14.90;99.90
51765;DHT22;37835;53.256;6.456;2022-08-30T06:52:49;15.10;99.90
51765;DHT22;37835;53.256;6.456;2022-08-30T06:55:15;15.10;99.90
51765;DHT22;37835;53.256;6.456;2022-08-30T06:57:41;15.20;99.90
51765;DHT22;37835;53.256;6.456;2022-08-30T07:00:10;15.30;99.90
51765;DHT22;37835;53.256;6.456;2022-08-30T07:02:36;15.40;99.90
51765;DHT22;37835;53.256;6.456;2022-08-30T07:05:03;15.40;99.90
51765;DHT22;37835;53.256;6.456;2022-08-30T07:07:29;15.60;99.90
51765;DHT22;37835;53.256;6.456;2022-08-30T07:09:55;15.80;99.90
51765;DHT22;37835;53.256;6.456;2022-08-30T07:12:21;15.70;99.90
51765;DHT22;37835;53.256;6.456;2022-08-30T07:14:46;15.80;99.90
51765;DHT22;37835;53.256;6.456;2022-08-30T07:17:12;15.90;99.90
51765;DHT22;37835;53.256;6.456;2022-08-30T07:19:56;16.00;99.90
51765;DHT22;37835;53.256;6.456;2022-08-30T07:22:21;16.10;99.90
51765;DHT22;37835;53.256;6.456;2022-08-30T07:24:47;16.20;99.90
51765;DHT22;37835;53.256;6.456;2022-08-30T07:27:13;16.20;99.90
51765;DHT22;37835;53.256;6.456;2022-08-30T07:29:40;16.30;99.90
51765;DHT22;37835;53.256;6.456;2022-08-30T07:32:06;16.40;99.90
51765;DHT22;37835;53.256;6.456;2022-08-30T07:34:32;16.50;99.90
51765;DHT22;37835;53.256;6.456;2022-08-30T07:36:57;16.50;99.90
51765;DHT22;37835;53.256;6.456;2022-08-30T07:39:23;16.60;99.90
51765;DHT22;37835;53.256;6.456;2022-08-30T07:41:49;16.70;99.90
51765;DHT22;37835;53.256;6.456;2022-08-30T07:44:15;16.80;99.90
51765;DHT22;37835;53.256;6.456;2022-08-30T07:46:41;16.80;99.90
51765;DHT22;37835;53.256;6.456;2022-08-30T07:49:07;16.90;99.90
51765;DHT22;37835;53.256;6.456;2022-08-30T07:51:34;17.00;99.90
51765;DHT22;37835;53.256;6.456;2022-08-30T07:53:59;17.00;99.90
51765;DHT22;37835;53.256;6.456;2022-08-30T07:56:26;17.10;99.90
51765;DHT22;37835;53.256;6.456;2022-08-30T07:58:52;17.20;99.90
51765;DHT22;37835;53.256;6.456;2022-08-30T08:01:18;17.30;99.90
51765;DHT22;37835;53.256;6.456;2022-08-30T08:03:44;17.40;99.90
51765;DHT22;37835;53.256;6.456;2022-08-30T08:06:13;17.40;99.90
51765;DHT22;37835;53.256;6.456;2022-08-30T08:08:39;17.50;99.90
51765;DHT22;37835;53.256;6.456;2022-08-30T08:11:18;17.60;99.90
51765;DHT22;37835;53.256;6.456;2022-08-30T08:13:45;17.70;99.90
51765;DHT22;37835;53.256;6.456;2022-08-30T08:16:11;17.80;99.90
51765;DHT22;37835;53.256;6.456;2022-08-30T08:18:37;17.90;99.90
51765;DHT22;37835;53.256;6.456;2022-08-30T08:21:03;18.00;99.90
51765;DHT22;37835;53.256;6.456;2022-08-30T08:23:29;18.10;99.90
51765;DHT22;37835;53.256;6.456;2022-08-30T08:25:54;18.40;99.90
51765;DHT22;37835;53.256;6.456;2022-08-30T08:28:20;18.30;99.90
51765;DHT22;37835;53.256;6.456;2022-08-30T08:30:46;18.40;99.90
51765;DHT22;37835;53.256;6.456;2022-08-30T08:33:12;18.40;99.90
51765;DHT22;37835;53.256;6.456;2022-08-30T08:35:39;18.50;99.90
51765;DHT22;37835;53.256;6.456;2022-08-30T08:38:04;18.50;99.90
51765;DHT22;37835;53.256;6.456;2022-08-30T08:40:39;18.50;99.90
51765;DHT22;37835;53.256;6.456;2022-08-30T08:43:12;18.50;99.90
51765;DHT22;37835;53.256;6.456;2022-08-30T08:45:41;18.40;99.90
51765;DHT22;37835;53.256;6.456;2022-08-30T08:48:18;18.50;99.90
51765;DHT22;37835;53.256;6.456;2022-08-30T08:50:47;18.50;99.90
51765;DHT22;37835;53.256;6.456;2022-08-30T08:53:33;18.50;99.90
51765;DHT22;37835;53.256;6.456;2022-08-30T08:56:02;18.50;99.90
51765;DHT22;37835;53.256;6.456;2022-08-30T08:58:31;18.60;99.90
51765;DHT22;37835;53.256;6.456;2022-08-30T09:00:58;18.70;99.90
51765;DHT22;37835;53.256;6.456;2022-08-30T09:03:27;18.80;99.90
51765;DHT22;37835;53.256;6.456;2022-08-30T09:05:53;18.80;99.90
51765;DHT22;37835;53.256;6.456;2022-08-30T09:08:21;18.90;99.90
51765;DHT22;37835;53.256;6.456;2022-08-30T09:11:04;18.90;99.90
51765;DHT22;37835;53.256;6.456;2022-08-30T09:13:31;19.00;99.90
51765;DHT22;37835;53.256;6.456;2022-08-30T09:15:57;19.00;99.90
51765;DHT22;37835;53.256;6.456;2022-08-30T09:18:45;19.00;99.90
51765;DHT22;37835;53.256;6.456;2022-08-30T09:21:13;19.10;99.90
51765;DHT22;37835;53.256;6.456;2022-08-30T09:23:50;19.10;99.90
51765;DHT22;37835;53.256;6.456;2022-08-30T09:26:32;19.10;99.90
51765;DHT22;37835;53.256;6.456;2022-08-30T09:28:58;19.10;99.90
51765;DHT22;37835;53.256;6.456;2022-08-30T09:31:45;19.10;99.90
51765;DHT22;37835;53.256;6.456;2022-08-30T09:34:17;19.10;99.90
51765;DHT22;37835;53.256;6.456;2022-08-30T09:39:27;19.20;99.90
51765;DHT22;37835;53.256;6.456;2022-08-30T09:41:54;19.20;99.90
51765;DHT22;37835;53.256;6.456;2022-08-30T09:44:37;19.20;99.90
51765;DHT22;37835;53.256;6.456;2022-08-30T09:47:03;19.30;99.90
51765;DHT22;37835;53.256;6.456;2022-08-30T09:49:35;19.30;99.90
51765;DHT22;37835;53.256;6.456;2022-08-30T10:00:56;19.40;99.90
51765;DHT22;37835;53.256;6.456;2022-08-30T10:08:45;19.50;99.90
51765;DHT22;37835;53.256;6.456;2022-08-30T10:14:10;19.50;99.90
51765;DHT22;37835;53.256;6.456;2022-08-30T10:16:58;19.60;99.90
51765;DHT22;37835;53.256;6.456;2022-08-30T10:25:02;19.80;99.90
51765;DHT22;37835;53.256;6.456;2022-08-30T10:27:40;20.00;99.90
51765;DHT22;37835;53.256;6.456;2022-08-30T10:30:10;20.00;99.90
51765;DHT22;37835;53.256;6.456;2022-08-30T10:35:19;20.00;99.90
51765;DHT22;37835;53.256;6.456;2022-08-30T10:38:16;20.00;99.90
51765;DHT22;37835;53.256;6.456;2022-08-30T10:40:46;20.00;99.90
51765;DHT22;37835;53.256;6.456;2022-08-30T10:46:33;20.00;99.90
51765;DHT22;37835;53.256;6.456;2022-08-30T10:49:03;20.00;99.90
51765;DHT22;37835;53.256;6.456;2022-08-30T10:52:19;20.10;99.90
51765;DHT22;37835;53.256;6.456;2022-08-30T10:54:53;20.20;99.90
51765;DHT22;37835;53.256;6.456;2022-08-30T10:57:18;20.30;99.90
51765;DHT22;37835;53.256;6.456;2022-08-30T10:59:49;20.30;99.90
51765;DHT22;37835;53.256;6.456;2022-08-30T11:02:46;20.40;99.90
51765;DHT22;37835;53.256;6.456;2022-08-30T11:05:27;20.40;99.90
51765;DHT22;37835;53.256;6.456;2022-08-30T11:13:31;20.70;99.90
51765;DHT22;37835;53.256;6.456;2022-08-30T11:16:06;20.80;99.90
51765;DHT22;37835;53.256;6.456;2022-08-30T11:18:44;20.90;99.90
51765;DHT22;37835;53.256;6.456;2022-08-30T11:21:21;20.90;99.90
51765;DHT22;37835;53.256;6.456;2022-08-30T11:24:03;20.90;99.90
51765;DHT22;37835;53.256;6.456;2022-08-30T11:42:33;21.20;99.90
51765;DHT22;37835;53.256;6.456;2022-08-30T11:55:58;21.40;99.90
51765;DHT22;37835;53.256;6.456;2022-08-30T11:58:56;21.40;99.90
51765;DHT22;37835;53.256;6.456;2022-08-30T12:16:58;21.70;99.90
51765;DHT22;37835;53.256;6.456;2022-08-30T12:19:45;21.80;99.90
51765;DHT22;37835;53.256;6.456;2022-08-30T12:22:16;21.80;99.90
51765;DHT22;37835;53.256;6.456;2022-08-30T12:24:46;21.90;99.90
51765;DHT22;37835;53.256;6.456;2022-08-30T12:29:54;21.90;99.90
51765;DHT22;37835;53.256;6.456;2022-08-30T12:32:20;21.90;99.90
51765;DHT22;37835;53.256;6.456;2022-08-30T12:34:53;22.00;99.90
51765;DHT22;37835;53.256;6.456;2022-08-30T12:37:31;22.00;99.90
51765;DHT22;37835;53.256;6.456;2022-08-30T12:40:06;22.10;99.90
51765;DHT22;37835;53.256;6.456;2022-08-30T12:42:35;22.10;99.90
51765;DHT22;37835;53.256;6.456;2022-08-30T12:45:06;22.10;99.90
51765;DHT22;37835;53.256;6.456;2022-08-30T12:47:51;22.10;99.90
51765;DHT22;37835;53.256;6.456;2022-08-30T12:50:24;22.10;99.90
51765;DHT22;37835;53.256;6.456;2022-08-30T12:53:21;22.20;99.90
51765;DHT22;37835;53.256;6.456;2022-08-30T12:56:09;22.20;99.90
51765;DHT22;37835;53.256;6.456;2022-08-30T12:58:50;22.20;99.90
51765;DHT22;37835;53.256;6.456;2022-08-30T13:01:27;22.30;99.90
51765;DHT22;37835;53.256;6.456;2022-08-30T13:03:56;22.40;99.90
51765;DHT22;37835;53.256;6.456;2022-08-30T13:11:49;22.60;99.90
51765;DHT22;37835;53.256;6.456;2022-08-30T13:16:43;22.60;99.90
51765;DHT22;37835;53.256;6.456;2022-08-30T13:22:03;22.70;99.90
51765;DHT22;37835;53.256;6.456;2022-08-30T13:24:30;22.70;99.90
51765;DHT22;37835;53.256;6.456;2022-08-30T13:27:01;22.70;99.90
51765;DHT22;37835;53.256;6.456;2022-08-30T13:29:28;22.70;99.90
51765;DHT22;37835;53.256;6.456;2022-08-30T13:31:53;22.70;99.90
51765;DHT22;37835;53.256;6.456;2022-08-30T13:34:19;22.70;99.90
51765;DHT22;37835;53.256;6.456;2022-08-30T13:36:53;22.80;99.90
51765;DHT22;37835;53.256;6.456;2022-08-30T13:39:19;22.80;99.90
51765;DHT22;37835;53.256;6.456;2022-08-30T13:41:45;22.80;99.90
51765;DHT22;37835;53.256;6.456;2022-08-30T13:44:11;22.80;99.90
51765;DHT22;37835;53.256;6.456;2022-08-30T13:46:39;22.80;99.90
51765;DHT22;37835;53.256;6.456;2022-08-30T13:49:12;23.00;99.90
51765;DHT22;37835;53.256;6.456;2022-08-30T13:51:41;22.90;99.90
51765;DHT22;37835;53.256;6.456;2022-08-30T13:54:07;22.90;99.90
51765;DHT22;37835;53.256;6.456;2022-08-30T13:56:33;23.00;99.90
51765;DHT22;37835;53.256;6.456;2022-08-30T13:58:59;23.00;99.90
51765;DHT22;37835;53.256;6.456;2022-08-30T14:01:25;23.10;99.90
51765;DHT22;37835;53.256;6.456;2022-08-30T14:03:51;23.00;99.90
51765;DHT22;37835;53.256;6.456;2022-08-30T14:06:16;23.00;99.90
51765;DHT22;37835;53.256;6.456;2022-08-30T14:08:42;23.00;99.90
51765;DHT22;37835;53.256;6.456;2022-08-30T14:11:08;23.00;99.90
51765;DHT22;37835;53.256;6.456;2022-08-30T14:13:36;23.20;99.90
51765;DHT22;37835;53.256;6.456;2022-08-30T14:16:04;22.90;99.90
51765;DHT22;37835;53.256;6.456;2022-08-30T14:18:30;22.90;99.90
51765;DHT22;37835;53.256;6.456;2022-08-30T14:20:55;22.70;99.90
51765;DHT22;37835;53.256;6.456;2022-08-30T14:23:21;22.70;99.90
51765;DHT22;37835;53.256;6.456;2022-08-30T14:25:47;22.70;99.90
51765;DHT22;37835;53.256;6.456;2022-08-30T14:28:12;22.70;99.90
51765;DHT22;37835;53.256;6.456;2022-08-30T14:30:38;22.70;99.90
51765;DHT22;37835;53.256;6.456;2022-08-30T14:33:04;22.80;99.90
51765;DHT22;37835;53.256;6.456;2022-08-30T14:35:29;22.80;99.90
51765;DHT22;37835;53.256;6.456;2022-08-30T14:37:55;22.90;99.90
51765;DHT22;37835;53.256;6.456;2022-08-30T14:40:21;22.90;99.90
51765;DHT22;37835;53.256;6.456;2022-08-30T14:42:46;22.80;99.90
51765;DHT22;37835;53.256;6.456;2022-08-30T14:45:12;22.80;99.90
51765;DHT22;37835;53.256;6.456;2022-08-30T14:47:38;22.70;99.90
51765;DHT22;37835;53.256;6.456;2022-08-30T14:50:04;22.70;99.90
51765;DHT22;37835;53.256;6.456;2022-08-30T14:52:31;22.80;99.90
51765;DHT22;37835;53.256;6.456;2022-08-30T14:54:58;22.80;99.90
51765;DHT22;37835;53.256;6.456;2022-08-30T14:57:23;22.80;99.90
51765;DHT22;37835;53.256;6.456;2022-08-30T14:59:49;22.90;99.90
51765;DHT22;37835;53.256;6.456;2022-08-30T15:02:15;22.90;99.90
51765;DHT22;37835;53.256;6.456;2022-08-30T15:04:41;22.90;99.90
51765;DHT22;37835;53.256;6.456;2022-08-30T15:07:07;22.90;99.90
51765;DHT22;37835;53.256;6.456;2022-08-30T15:09:32;22.90;99.90
51765;DHT22;37835;53.256;6.456;2022-08-30T15:11:58;23.00;99.90
51765;DHT22;37835;53.256;6.456;2022-08-30T15:14:26;22.90;99.90
51765;DHT22;37835;53.256;6.456;2022-08-30T15:16:53;22.90;99.90
51765;DHT22;37835;53.256;6.456;2022-08-30T15:19:19;22.90;99.90
51765;DHT22;37835;53.256;6.456;2022-08-30T15:21:46;22.90;99.90
51765;DHT22;37835;53.256;6.456;2022-08-30T15:24:22;22.90;99.90
51765;DHT22;37835;53.256;6.456;2022-08-30T15:26:48;22.90;99.90
51765;DHT22;37835;53.256;6.456;2022-08-30T15:29:16;22.80;99.90
51765;DHT22;37835;53.256;6.456;2022-08-30T15:31:43;22.70;99.90
51765;DHT22;37835;53.256;6.456;2022-08-30T15:34:11;22.60;99.90
51765;DHT22;37835;53.256;6.456;2022-08-30T15:36:40;22.60;99.90
51765;DHT22;37835;53.256;6.456;2022-08-30T15:39:06;22.60;99.90
51765;DHT22;37835;53.256;6.456;2022-08-30T15:41:32;22.60;99.90
51765;DHT22;37835;53.256;6.456;2022-08-30T15:43:58;22.60;99.90
51765;DHT22;37835;53.256;6.456;2022-08-30T15:46:32;22.60;99.90
51765;DHT22;37835;53.256;6.456;2022-08-30T15:49:02;22.70;99.90
51765;DHT22;37835;53.256;6.456;2022-08-30T15:51:29;22.70;99.90
51765;DHT22;37835;53.256;6.456;2022-08-30T15:53:55;22.70;99.90
51765;DHT22;37835;53.256;6.456;2022-08-30T15:56:20;22.60;99.90
51765;DHT22;37835;53.256;6.456;2022-08-30T15:58:46;22.50;99.90
51765;DHT22;37835;53.256;6.456;2022-08-30T16:01:13;22.50;99.90
51765;DHT22;37835;53.256;6.456;2022-08-30T16:03:39;22.50;99.90
51765;DHT22;37835;53.256;6.456;2022-08-30T16:06:22;22.50;99.90
51765;DHT22;37835;53.256;6.456;2022-08-30T16:08:48;22.40;99.90
51765;DHT22;37835;53.256;6.456;2022-08-30T16:11:16;22.40;99.90
51765;DHT22;37835;53.256;6.456;2022-08-30T16:13:43;22.40;99.90
51765;DHT22;37835;53.256;6.456;2022-08-30T16:16:10;22.40;99.90
51765;DHT22;37835;53.256;6.456;2022-08-30T16:18:37;22.40;99.90
51765;DHT22;37835;53.256;6.456;2022-08-30T16:23:35;22.30;99.90
51765;DHT22;37835;53.256;6.456;2022-08-30T16:26:01;22.20;99.90
51765;DHT22;37835;53.256;6.456;2022-08-30T16:28:26;22.20;99.90
51765;DHT22;37835;53.256;6.456;2022-08-30T16:30:52;22.10;99.90
51765;DHT22;37835;53.256;6.456;2022-08-30T16:33:18;22.00;99.90
51765;DHT22;37835;53.256;6.456;2022-08-30T16:35:43;21.90;99.90
51765;DHT22;37835;53.256;6.456;2022-08-30T16:38:09;21.80;99.90
51765;DHT22;37835;53.256;6.456;2022-08-30T16:40:35;21.70;99.90
51765;DHT22;37835;53.256;6.456;2022-08-30T16:43:02;21.70;99.90
51765;DHT22;37835;53.256;6.456;2022-08-30T16:45:28;21.60;99.90
51765;DHT22;37835;53.256;6.456;2022-08-30T16:47:53;21.50;99.90
51765;DHT22;37835;53.256;6.456;2022-08-30T16:50:19;21.50;99.90
51765;DHT22;37835;53.256;6.456;2022-08-30T16:52:48;21.40;99.90
51765;DHT22;37835;53.256;6.456;2022-08-30T16:55:14;21.40;99.90
51765;DHT22;37835;53.256;6.456;2022-08-30T16:57:40;21.30;99.90
51765;DHT22;37835;53.256;6.456;2022-08-30T17:00:06;21.30;99.90
51765;DHT22;37835;53.256;6.456;2022-08-30T17:02:34;21.30;99.90
51765;DHT22;37835;53.256;6.456;2022-08-30T17:04:59;21.20;99.90
51765;DHT22;37835;53.256;6.456;2022-08-30T17:07:25;21.10;99.90
51765;DHT22;37835;53.256;6.456;2022-08-30T17:09:50;21.10;99.90
51765;DHT22;37835;53.256;6.456;2022-08-30T17:12:16;21.00;99.90
51765;DHT22;37835;53.256;6.456;2022-08-30T17:14:42;20.90;99.90